Time;durP1;ratioP1;P1;durP2;ratioP2;P2;SDS_P1;SDS_P2;PMS_P1;PMS_P2;Temp;Humidity;BMP_temperature;BMP_pressure;BME280_temperature;BME280_humidity;BME280_pressure;Samples;Min_cycle;Max_cycle;Signal;HPM_P1;HPM_P2
2021/12/03 00:00:50;;;;;;;3.43;2.60;;;-1.80;99.90;;;;;;4980761;28;20495;-54
2021/12/03 00:03:18;;;;;;;4.83;2.50;;;-1.80;99.90;;;;;;4978999;28;20492;-55
2021/12/03 00:05:45;;;;;;;13.07;2.90;;;-1.80;99.90;;;;;;4983412;28;20520;-54
2021/12/03 00:08:12;;;;;;;2.70;2.37;;;-1.80;99.90;;;;;;4973258;28;20481;-54
2021/12/03 00:10:39;;;;;;;5.80;3.00;;;-1.80;99.90;;;;;;4979544;28;20886;-54
2021/12/03 00:13:08;;;;;;;6.30;3.33;;;-1.90;99.90;;;;;;4970623;28;20543;-54
2021/12/03 00:15:36;;;;;;;5.70;3.10;;;-1.90;99.90;;;;;;4970446;28;20486;-54
2021/12/03 00:18:03;;;;;;;4.40;2.90;;;-1.90;99.90;;;;;;4974482;28;20508;-54
2021/12/03 00:20:34;;;;;;;9.07;3.47;;;-1.90;99.90;;;;;;4980617;28;20496;-54
2021/12/03 00:23:01;;;;;;;6.30;2.67;;;-1.90;99.90;;;;;;4970747;28;20943;-54
2021/12/03 00:25:28;;;;;;;5.70;2.33;;;-1.90;99.90;;;;;;4972329;28;20517;-54
2021/12/03 00:27:54;;;;;;;2.63;2.43;;;-1.80;99.90;;;;;;4969311;28;20584;-53
2021/12/03 00:30:21;;;;;;;3.10;2.53;;;-1.80;99.90;;;;;;4981727;28;20492;-54
2021/12/03 00:32:49;;;;;;;8.80;3.90;;;-1.90;99.90;;;;;;4970855;28;20931;-54
2021/12/03 00:35:18;;;;;;;4.83;2.93;;;-1.90;99.90;;;;;;4971851;28;20923;-54
2021/12/03 00:37:47;;;;;;;4.40;3.33;;;-1.90;99.90;;;;;;4964657;28;20502;-54
2021/12/03 00:40:17;;;;;;;4.70;3.03;;;-1.80;99.90;;;;;;4973943;28;20983;-54
2021/12/03 00:42:43;;;;;;;5.43;3.00;;;-1.80;99.90;;;;;;4971126;28;20503;-54
2021/12/03 00:45:12;;;;;;;6.50;3.80;;;-1.80;99.90;;;;;;4976782;28;21003;-54
2021/12/03 00:47:39;;;;;;;5.63;3.63;;;-1.80;99.90;;;;;;4962501;28;20470;-55
2021/12/03 00:50:08;;;;;;;8.40;3.37;;;-1.80;99.90;;;;;;4976443;28;20568;-54
2021/12/03 00:52:35;;;;;;;6.10;3.20;;;-1.80;99.90;;;;;;4973288;28;20504;-54
2021/12/03 00:55:05;;;;;;;8.77;3.33;;;-1.70;99.90;;;;;;4972555;28;20512;-54
2021/12/03 00:57:31;;;;;;;8.40;3.27;;;-1.80;99.90;;;;;;4974130;28;20492;-54
2021/12/03 00:59:58;;;;;;;8.13;2.60;;;-1.70;99.90;;;;;;4980280;28;20500;-55
2021/12/03 01:02:25;;;;;;;4.47;2.80;;;-1.80;99.90;;;;;;4977196;28;20512;-54
2021/12/03 01:04:52;;;;;;;9.93;2.57;;;-1.70;99.90;;;;;;4984738;28;20525;-54
2021/12/03 01:07:18;;;;;;;4.37;2.57;;;-1.70;99.90;;;;;;4973856;28;22431;-54
2021/12/03 01:09:45;;;;;;;6.17;2.40;;;-1.70;99.90;;;;;;4977312;28;21070;-54
2021/12/03 01:12:14;;;;;;;7.53;2.70;;;-1.70;99.90;;;;;;4969547;28;20500;-55
2021/12/03 01:14:40;;;;;;;5.17;2.43;;;-1.60;99.90;;;;;;4971053;28;20524;-54
2021/12/03 01:17:07;;;;;;;8.40;3.90;;;-1.70;99.90;;;;;;4969472;28;20575;-54
2021/12/03 01:19:34;;;;;;;9.33;2.87;;;-1.60;99.90;;;;;;4971649;28;20489;-54
2021/12/03 01:22:01;;;;;;;8.60;3.33;;;-1.50;99.90;;;;;;4973058;28;20544;-54
2021/12/03 01:24:28;;;;;;;4.33;3.43;;;-1.50;99.90;;;;;;4980811;28;20571;-55
2021/12/03 01:26:55;;;;;;;6.80;3.87;;;-1.60;99.90;;;;;;4970931;28;20544;-55
2021/12/03 01:29:23;;;;;;;6.90;3.50;;;-1.50;99.90;;;;;;4968684;28;21053;-55
2021/12/03 01:31:51;;;;;;;7.63;4.00;;;-1.60;99.90;;;;;;4969173;28;20469;-54
2021/12/03 01:34:18;;;;;;;8.73;3.90;;;-1.60;99.90;;;;;;4969648;28;20812;-55
2021/12/03 01:36:44;;;;;;;13.17;4.03;;;-1.50;99.90;;;;;;4980975;28;20460;-54
2021/12/03 01:39:12;;;;;;;3.67;3.37;;;-1.50;99.90;;;;;;4970817;28;21073;-55
2021/12/03 01:41:39;;;;;;;10.10;3.33;;;-1.50;99.90;;;;;;4969415;28;20500;-55
2021/12/03 01:44:07;;;;;;;5.73;3.10;;;-1.40;99.90;;;;;;4971843;28;20882;-55
2021/12/03 01:46:35;;;;;;;6.97;3.37;;;-1.40;99.90;;;;;;4970183;28;20493;-55
2021/12/03 01:49:03;;;;;;;9.93;4.83;;;-1.30;99.90;;;;;;4970584;28;20529;-54
2021/12/03 01:51:29;;;;;;;12.43;5.17;;;-1.30;99.90;;;;;;4974145;28;20496;-55
2021/12/03 01:53:57;;;;;;;8.07;4.17;;;-1.30;99.90;;;;;;4977982;28;20974;-54
2021/12/03 01:56:24;;;;;;;10.43;4.23;;;-1.30;99.90;;;;;;4971529;28;20986;-54
2021/12/03 01:58:53;;;;;;;9.90;4.37;;;-1.30;99.90;;;;;;4974956;28;20490;-55
2021/12/03 02:01:24;;;;;;;9.20;4.10;;;-1.20;99.90;;;;;;4967521;28;20937;-54
2021/12/03 02:03:56;;;;;;;9.83;4.40;;;-1.20;99.90;;;;;;4981148;28;20942;-54
2021/12/03 02:06:24;;;;;;;9.03;4.50;;;-1.10;99.90;;;;;;4970680;28;20517;-53
2021/12/03 02:08:51;;;;;;;7.13;3.90;;;-1.10;99.90;;;;;;4974763;28;20559;-54
2021/12/03 02:11:18;;;;;;;8.00;3.50;;;-1.10;99.90;;;;;;4969555;28;20458;-54
2021/12/03 02:13:45;;;;;;;6.93;3.50;;;-1.10;99.90;;;;;;4973722;28;20899;-55
2021/12/03 02:16:13;;;;;;;5.40;3.00;;;-1.10;99.90;;;;;;4969914;28;20521;-55
2021/12/03 02:18:40;;;;;;;7.50;2.70;;;-1.20;99.90;;;;;;4967381;28;20556;-54
2021/12/03 02:21:10;;;;;;;5.23;3.20;;;-1.20;99.90;;;;;;4975637;28;20922;-54
2021/12/03 02:23:37;;;;;;;5.30;3.27;;;-1.20;99.90;;;;;;4979037;28;20461;-55
2021/12/03 02:26:04;;;;;;;4.50;3.40;;;-1.20;99.90;;;;;;4971412;28;20521;-54
2021/12/03 02:28:34;;;;;;;9.20;3.17;;;-1.20;99.90;;;;;;4971222;28;20575;-55
2021/12/03 02:31:04;;;;;;;4.40;3.47;;;-1.30;99.90;;;;;;4974272;28;20494;-55
2021/12/03 02:33:31;;;;;;;9.50;3.70;;;-1.20;99.90;;;;;;4973389;28;20473;-54
2021/12/03 02:35:57;;;;;;;3.83;2.93;;;-1.20;99.90;;;;;;4970628;28;20559;-54
2021/12/03 02:38:26;;;;;;;5.23;3.90;;;-1.20;99.90;;;;;;4972582;28;20493;-55
2021/12/03 02:40:54;;;;;;;5.00;3.50;;;-1.20;99.90;;;;;;4971561;28;20493;-54
2021/12/03 02:43:20;;;;;;;4.13;3.63;;;-1.20;99.90;;;;;;4976862;28;20501;-54
2021/12/03 02:45:50;;;;;;;3.43;3.13;;;-1.30;99.90;;;;;;4970341;28;20482;-55
2021/12/03 02:48:17;;;;;;;6.97;4.30;;;-1.30;99.90;;;;;;4979700;28;20489;-55
2021/12/03 02:50:44;;;;;;;8.17;3.90;;;-1.30;99.90;;;;;;4971100;28;20470;-55
2021/12/03 02:53:10;;;;;;;6.50;3.57;;;-1.30;99.90;;;;;;4972957;28;21005;-54
2021/12/03 02:55:38;;;;;;;8.20;4.13;;;-1.30;99.90;;;;;;4982051;28;20571;-54
2021/12/03 02:58:05;;;;;;;7.80;4.40;;;-1.30;99.90;;;;;;4983829;28;20489;-54
2021/12/03 03:00:32;;;;;;;8.02;4.25;;;-1.40;99.90;;;;;;4974806;28;20464;-54
2021/12/03 03:02:59;;;;;;;5.90;3.97;;;-1.40;99.90;;;;;;4977845;28;20294;-55
2021/12/03 03:05:27;;;;;;;7.43;4.30;;;-1.30;99.90;;;;;;4976294;28;20501;-55
2021/12/03 03:07:54;;;;;;;5.30;4.53;;;-1.30;99.90;;;;;;4973671;28;20979;-55
2021/12/03 03:10:25;;;;;;;5.47;3.50;;;-1.30;99.90;;;;;;4973946;28;20485;-54
2021/12/03 03:12:54;;;;;;;6.10;4.77;;;-1.30;99.90;;;;;;4971216;28;20466;-55
2021/12/03 03:15:21;;;;;;;5.97;3.93;;;-1.20;99.90;;;;;;4973628;28;20539;-55
2021/12/03 03:17:49;;;;;;;7.83;3.47;;;-1.20;99.90;;;;;;4974015;28;20493;-55
2021/12/03 03:20:16;;;;;;;8.40;4.67;;;-1.20;99.90;;;;;;4974322;28;20553;-55
2021/12/03 03:22:44;;;;;;;5.00;3.43;;;-1.20;99.90;;;;;;4981910;28;20492;-54
2021/12/03 03:25:14;;;;;;;6.10;4.03;;;-1.20;99.90;;;;;;4983051;28;20999;-54
2021/12/03 03:27:41;;;;;;;6.70;4.43;;;-1.20;99.90;;;;;;4992278;28;20500;-54
2021/12/03 03:30:12;;;;;;;8.77;4.00;;;-1.20;99.90;;;;;;4975981;28;20535;-54
2021/12/03 03:32:39;;;;;;;9.23;4.13;;;-1.30;99.90;;;;;;4979096;28;20461;-54
2021/12/03 03:35:07;;;;;;;11.63;4.43;;;-1.30;99.90;;;;;;4966979;28;20493;-53
2021/12/03 03:37:34;;;;;;;7.10;4.33;;;-1.30;99.90;;;;;;4974193;28;20498;-54
2021/12/03 03:40:00;;;;;;;6.63;3.73;;;-1.30;99.90;;;;;;4971919;28;20461;-54
2021/12/03 03:42:27;;;;;;;4.03;3.70;;;-1.30;99.90;;;;;;4973509;28;20499;-54
2021/12/03 03:44:54;;;;;;;4.03;3.70;;;-1.30;99.90;;;;;;4978997;28;20528;-54
2021/12/03 03:47:21;;;;;;;8.40;4.40;;;-1.30;99.90;;;;;;4972782;28;20530;-54
2021/12/03 03:49:48;;;;;;;6.20;3.30;;;-1.30;99.90;;;;;;4977005;28;20521;-55
2021/12/03 03:52:15;;;;;;;7.87;4.23;;;-1.30;99.90;;;;;;4983391;28;20466;-55
2021/12/03 03:54:42;;;;;;;6.30;4.57;;;-1.30;99.90;;;;;;4971392;28;20531;-54
2021/12/03 03:57:08;;;;;;;6.27;3.90;;;-1.30;99.90;;;;;;4977857;28;20504;-55
2021/12/03 03:59:35;;;;;;;5.53;2.80;;;-1.30;99.90;;;;;;4971204;28;20497;-54
2021/12/03 04:02:01;;;;;;;4.60;3.43;;;-1.30;99.90;;;;;;4980718;28;20774;-54
2021/12/03 04:06:57;;;;;;;4.37;3.50;;;-1.30;99.90;;;;;;4965926;28;20473;-51
2021/12/03 04:09:24;;;;;;;5.50;3.70;;;-1.30;99.90;;;;;;4981906;28;20489;-51
2021/12/03 04:11:50;;;;;;;12.67;4.13;;;-1.30;99.90;;;;;;4968199;28;20883;-51
2021/12/03 04:14:17;;;;;;;6.60;3.50;;;-1.20;99.90;;;;;;4969084;28;20500;-52
2021/12/03 04:16:44;;;;;;;4.57;3.40;;;-1.20;99.90;;;;;;4972645;28;20513;-53
2021/12/03 04:19:10;;;;;;;3.70;3.10;;;-1.20;99.90;;;;;;4972013;28;21058;-52
2021/12/03 04:21:38;;;;;;;5.13;3.40;;;-1.20;99.90;;;;;;4965231;28;20493;-51
2021/12/03 04:24:07;;;;;;;5.00;3.23;;;-1.10;99.90;;;;;;4971086;28;20506;-51
2021/12/03 04:26:34;;;;;;;4.67;2.90;;;-1.10;99.90;;;;;;4971630;28;20508;-50
2021/12/03 04:29:00;;;;;;;3.80;3.10;;;-1.20;99.90;;;;;;4969772;28;20481;-53
2021/12/03 04:31:28;;;;;;;3.20;2.80;;;-1.20;1.40;;;;;;4971984;28;20528;-51
2021/12/03 04:33:56;;;;;;;6.77;3.23;;;-1.20;99.90;;;;;;4968056;28;20888;-51
2021/12/03 04:36:22;;;;;;;8.93;3.47;;;-1.20;1.40;;;;;;4966279;28;20571;-51
2021/12/03 04:38:49;;;;;;;4.53;2.97;;;-1.20;99.90;;;;;;4962746;28;20465;-51
2021/12/03 04:41:17;;;;;;;3.23;2.77;;;-1.20;99.90;;;;;;4978901;28;20500;-52
2021/12/03 04:43:44;;;;;;;7.97;4.20;;;-1.20;99.90;;;;;;4968708;28;20492;-51
2021/12/03 04:46:10;;;;;;;5.23;3.87;;;-1.10;1.40;;;;;;4968754;28;20524;-51
2021/12/03 04:48:37;;;;;;;7.30;3.60;;;-1.20;99.90;;;;;;4969736;28;20560;-51
2021/12/03 04:51:04;;;;;;;3.83;3.10;;;-1.20;99.90;;;;;;4970244;28;20528;-53
2021/12/03 04:53:31;;;;;;;4.60;3.17;;;-1.10;99.90;;;;;;4970544;28;20999;-52
2021/12/03 04:55:57;;;;;;;4.47;3.33;;;-1.10;99.90;;;;;;4961848;28;20517;-52
2021/12/03 04:58:25;;;;;;;3.30;3.00;;;-1.10;99.90;;;;;;4970067;28;20465;-51
2021/12/03 05:00:54;;;;;;;4.23;2.70;;;-1.10;99.90;;;;;;4968012;28;20498;-52
2021/12/03 05:03:23;;;;;;;4.83;3.03;;;-1.10;99.90;;;;;;4965749;28;20465;-52
2021/12/03 05:05:53;;;;;;;8.03;3.40;;;-1.10;99.90;;;;;;4966058;28;20539;-51
2021/12/03 05:08:20;;;;;;;4.47;3.37;;;-1.10;99.90;;;;;;4963879;28;20474;-52
2021/12/03 05:10:46;;;;;;;6.17;3.50;;;-1.10;99.90;;;;;;4963503;28;20514;-51
2021/12/03 05:13:15;;;;;;;5.70;4.43;;;-1.10;99.90;;;;;;4973103;28;20488;-53
2021/12/03 05:15:44;;;;;;;3.10;2.80;;;-1.10;99.90;;;;;;4969585;28;21022;-52
2021/12/03 05:18:14;;;;;;;3.20;2.90;;;-1.10;99.90;;;;;;4970807;28;20566;-52
2021/12/03 05:20:41;;;;;;;9.70;4.23;;;-1.10;99.90;;;;;;4963171;28;20529;-52
2021/12/03 05:23:09;;;;;;;7.30;3.67;;;-1.10;99.90;;;;;;4965943;28;20519;-51
2021/12/03 05:25:36;;;;;;;8.23;2.97;;;-1.00;99.90;;;;;;4964279;28;21074;-53
2021/12/03 05:28:05;;;;;;;5.07;3.60;;;-0.80;99.90;;;;;;4969345;28;20474;-53
2021/12/03 05:30:32;;;;;;;6.17;3.20;;;-0.70;99.90;;;;;;4968131;28;20527;-51
2021/12/03 05:33:00;;;;;;;3.53;3.30;;;-0.80;99.90;;;;;;4967154;28;20525;-52
2021/12/03 05:35:28;;;;;;;3.63;3.33;;;-0.90;99.90;;;;;;4958560;28;20581;-53
2021/12/03 05:37:55;;;;;;;4.07;3.70;;;-0.90;99.90;;;;;;4969140;28;20493;-52
2021/12/03 05:40:22;;;;;;;3.40;3.13;;;-0.90;99.90;;;;;;4972515;28;20544;-52
2021/12/03 05:42:50;;;;;;;7.23;3.77;;;-1.00;99.90;;;;;;4964346;28;20497;-51
2021/12/03 05:45:20;;;;;;;6.33;3.70;;;-1.00;99.90;;;;;;4965017;28;20481;-51
2021/12/03 05:47:47;;;;;;;4.17;3.63;;;-1.00;99.90;;;;;;4969450;28;20466;-52
2021/12/03 05:50:16;;;;;;;5.97;4.03;;;-1.00;99.90;;;;;;4966554;28;20518;-52
2021/12/03 05:52:43;;;;;;;4.17;3.77;;;-1.00;99.90;;;;;;4959498;28;20502;-51
2021/12/03 05:55:12;;;;;;;4.47;3.80;;;-1.00;99.90;;;;;;4968689;28;20520;-52
2021/12/03 05:57:49;;;;;;;5.10;3.83;;;-1.10;99.90;;;;;;4974332;28;20458;-53
2021/12/03 06:00:19;;;;;;;3.97;3.53;;;-1.00;99.90;;;;;;4972227;28;20565;-52
2021/12/03 06:02:46;;;;;;;4.97;3.50;;;-1.10;99.90;;;;;;4974654;28;20500;-52
2021/12/03 06:05:12;;;;;;;4.10;3.43;;;-1.00;99.90;;;;;;4967252;28;20533;-52
2021/12/03 06:07:41;;;;;;;5.33;3.10;;;-1.00;99.90;;;;;;4965313;28;20497;-51
2021/12/03 06:10:08;;;;;;;7.90;3.93;;;-1.10;99.90;;;;;;4961794;28;20517;-51
2021/12/03 06:12:35;;;;;;;3.70;3.40;;;-1.00;99.90;;;;;;4970800;28;20551;-51
2021/12/03 06:15:01;;;;;;;4.30;3.60;;;-1.00;99.90;;;;;;4969119;28;20528;-51
2021/12/03 06:17:28;;;;;;;7.07;4.70;;;-1.00;99.90;;;;;;4965408;28;20556;-51
2021/12/03 06:19:55;;;;;;;5.70;4.27;;;-1.00;99.90;;;;;;4964797;28;20493;-53
2021/12/03 06:22:21;;;;;;;4.20;3.63;;;-1.00;99.90;;;;;;4958103;28;21961;-50
2021/12/03 06:24:49;;;;;;;5.10;4.07;;;-1.00;99.90;;;;;;4969095;28;20509;-51
2021/12/03 06:27:16;;;;;;;3.40;3.20;;;-1.00;1.40;;;;;;4975375;28;20485;-50
2021/12/03 06:29:42;;;;;;;7.70;4.10;;;-1.00;99.90;;;;;;4970753;28;20513;-51
2021/12/03 06:32:10;;;;;;;6.03;4.37;;;-1.00;99.90;;;;;;4966784;28;20574;-51
2021/12/03 06:34:37;;;;;;;13.10;4.37;;;-1.00;99.90;;;;;;4976400;28;20456;-51
2021/12/03 06:37:04;;;;;;;4.60;4.10;;;-1.00;99.90;;;;;;4979064;28;20496;-50
2021/12/03 06:39:30;;;;;;;8.70;3.80;;;-1.00;99.90;;;;;;4972405;28;20495;-50
2021/12/03 06:41:58;;;;;;;4.27;3.73;;;-1.00;99.90;;;;;;4973305;28;20931;-52
2021/12/03 06:44:25;;;;;;;7.53;4.50;;;-1.00;99.90;;;;;;4972741;28;20481;-52
2021/12/03 06:46:53;;;;;;;6.40;4.57;;;-1.00;99.90;;;;;;4973728;28;20540;-52
2021/12/03 06:49:20;;;;;;;6.80;4.13;;;-1.00;99.90;;;;;;4971471;28;20461;-52
2021/12/03 06:51:47;;;;;;;10.43;3.57;;;-1.00;99.90;;;;;;4974089;28;20465;-52
2021/12/03 06:54:23;;;;;;;4.70;3.77;;;-1.00;99.90;;;;;;4973881;28;20828;-52
2021/12/03 06:56:51;;;;;;;5.97;3.83;;;-0.90;99.90;;;;;;4969905;28;21002;-51
2021/12/03 06:59:21;;;;;;;8.50;4.50;;;-0.90;99.90;;;;;;4978445;28;21548;-52
2021/12/03 07:01:48;;;;;;;5.72;3.58;;;-0.90;99.90;;;;;;4970667;28;20490;-52
2021/12/03 07:04:15;;;;;;;3.73;3.43;;;-0.90;99.90;;;;;;4970351;28;20767;-53
2021/12/03 07:06:42;;;;;;;6.33;4.30;;;-0.90;99.90;;;;;;4972211;28;20497;-52
2021/12/03 07:09:09;;;;;;;5.13;4.07;;;-0.90;99.90;;;;;;4978788;28;20883;-51
2021/12/03 07:11:36;;;;;;;4.90;4.30;;;-0.80;99.90;;;;;;4962440;28;20576;-51
2021/12/03 07:14:04;;;;;;;6.63;4.70;;;-0.80;99.90;;;;;;4968281;28;20592;-52
2021/12/03 07:16:32;;;;;;;4.70;4.10;;;-0.70;99.90;;;;;;4978250;28;20480;-52
2021/12/03 07:18:59;;;;;;;4.37;3.90;;;-0.70;99.90;;;;;;4967925;28;20457;-52
2021/12/03 07:21:26;;;;;;;4.60;4.20;;;-0.70;99.90;;;;;;4970107;28;20488;-52
2021/12/03 07:23:53;;;;;;;6.17;4.80;;;-0.60;99.90;;;;;;4971696;28;20497;-51
2021/12/03 07:26:22;;;;;;;5.90;4.30;;;-0.60;99.90;;;;;;4967818;28;20473;-52
2021/12/03 07:28:49;;;;;;;4.97;4.50;;;-0.50;99.90;;;;;;4966918;28;20465;-52
2021/12/03 07:31:16;;;;;;;4.90;4.13;;;-0.50;99.90;;;;;;4967135;28;21049;-51
2021/12/03 07:33:44;;;;;;;5.13;4.63;;;-0.40;99.90;;;;;;4967661;28;20551;-51
2021/12/03 07:36:10;;;;;;;14.60;5.17;;;-0.40;99.90;;;;;;4967206;28;20488;-52
2021/12/03 07:38:37;;;;;;;5.20;4.63;;;-0.30;99.90;;;;;;4969978;28;20497;-53
2021/12/03 07:41:05;;;;;;;4.50;4.10;;;-0.30;99.90;;;;;;4971127;28;20493;-51
2021/12/03 07:43:32;;;;;;;7.73;5.20;;;-0.20;99.90;;;;;;4968544;28;20561;-52
2021/12/03 07:45:59;;;;;;;6.67;5.20;;;-0.20;99.90;;;;;;4974314;28;20524;-51
2021/12/03 07:48:25;;;;;;;10.37;5.27;;;0.00;99.90;;;;;;4966968;28;20499;-52
2021/12/03 07:50:54;;;;;;;5.93;4.83;;;0.00;99.90;;;;;;4970971;28;20513;-52
2021/12/03 07:53:21;;;;;;;7.53;6.60;;;0.10;99.90;;;;;;4973283;28;20453;-52
2021/12/03 07:55:49;;;;;;;7.70;5.23;;;0.10;99.90;;;;;;4968238;28;20998;-52
2021/12/03 07:58:17;;;;;;;9.00;5.73;;;0.20;99.90;;;;;;4967253;28;20469;-52
2021/12/03 08:00:44;;;;;;;6.00;5.10;;;0.20;99.90;;;;;;4968555;28;20536;-51
2021/12/03 08:03:11;;;;;;;7.87;5.80;;;0.20;99.90;;;;;;4968536;28;20472;-50
2021/12/03 08:05:38;;;;;;;6.17;5.57;;;0.20;99.00;;;;;;4966914;28;21164;-51
2021/12/03 08:08:06;;;;;;;9.17;5.23;;;0.20;99.90;;;;;;4966890;28;20466;-51
2021/12/03 08:10:34;;;;;;;6.03;5.20;;;0.30;99.90;;;;;;4969670;28;20485;-51
2021/12/03 08:13:01;;;;;;;6.10;5.53;;;0.30;21.80;;;;;;4971465;28;20584;-51
2021/12/03 08:15:28;;;;;;;5.47;4.97;;;0.30;95.30;;;;;;4972088;28;20482;-51
2021/12/03 08:17:54;;;;;;;7.67;6.17;;;0.30;99.90;;;;;;4962004;28;20469;-52
2021/12/03 08:20:21;;;;;;;6.47;5.37;;;0.40;99.90;;;;;;4962830;28;20554;-51
2021/12/03 08:22:47;;;;;;;7.60;5.57;;;0.40;77.70;;;;;;4973062;28;20523;-51
2021/12/03 08:25:15;;;;;;;11.67;6.53;;;0.40;24.00;;;;;;4969156;28;20610;-52
2021/12/03 08:27:42;;;;;;;7.20;5.90;;;0.50;22.80;;;;;;4963891;28;20467;-51
2021/12/03 08:30:11;;;;;;;10.10;6.60;;;0.50;32.10;;;;;;4962195;28;20508;-51
2021/12/03 08:32:38;;;;;;;5.50;5.00;;;0.50;28.10;;;;;;4973017;28;20893;-52
2021/12/03 08:35:05;;;;;;;6.50;5.43;;;0.50;35.00;;;;;;4969950;28;20529;-52
2021/12/03 08:37:32;;;;;;;7.13;6.00;;;0.50;30.70;;;;;;4966383;28;20470;-51
2021/12/03 08:39:58;;;;;;;7.17;5.87;;;0.60;41.00;;;;;;4969280;28;20508;-51
2021/12/03 08:42:26;;;;;;;6.67;5.90;;;0.60;42.10;;;;;;4968146;28;20971;-52
2021/12/03 08:44:53;;;;;;;7.70;6.23;;;0.60;46.40;;;;;;4969168;28;20509;-52
2021/12/03 08:47:20;;;;;;;6.53;5.77;;;0.60;45.70;;;;;;4970269;28;20502;-52
2021/12/03 08:49:49;;;;;;;11.00;6.30;;;0.70;45.00;;;;;;4970138;28;20497;-52
2021/12/03 08:55:12;;;;;;;7.00;5.37;;;0.80;62.40;;;;;;4917242;29;20476;-52
2021/12/03 08:57:40;;;;;;;5.47;4.93;;;0.90;72.50;;;;;;4951022;28;20493;-52
2021/12/03 09:00:11;;;;;;;5.17;4.77;;;1.00;78.40;;;;;;4966669;28;22511;-50
2021/12/03 09:02:38;;;;;;;7.57;5.50;;;1.30;88.20;;;;;;4970017;28;20484;-51
2021/12/03 09:05:05;;;;;;;8.53;5.20;;;1.40;99.90;;;;;;4969243;28;20516;-51
2021/12/03 09:07:32;;;;;;;6.40;5.40;;;1.40;98.60;;;;;;4971219;28;20519;-51
2021/12/03 09:09:58;;;;;;;12.23;5.70;;;1.30;98.90;;;;;;4970531;28;20496;-51
2021/12/03 09:12:25;;;;;;;9.73;6.57;;;1.30;99.90;;;;;;4970883;28;20521;-52
2021/12/03 09:14:55;;;;;;;6.60;5.50;;;1.30;95.60;;;;;;4973252;28;20477;-51
2021/12/03 09:17:32;;;;;;;6.40;5.80;;;1.30;93.70;;;;;;4969548;28;20958;-51
2021/12/03 09:20:05;;;;;;;6.40;5.80;;;1.40;99.90;;;;;;4964371;28;20464;-52
2021/12/03 09:22:38;;;;;;;9.23;5.10;;;1.50;99.90;;;;;;4968986;28;20458;-52
2021/12/03 09:25:06;;;;;;;7.90;6.00;;;1.60;99.90;;;;;;4968634;28;20983;-52
2021/12/03 09:27:33;;;;;;;6.47;5.77;;;1.60;99.90;;;;;;4965084;28;21035;-50
2021/12/03 09:30:02;;;;;;;7.40;6.40;;;1.70;99.90;;;;;;4966423;28;20472;-51
2021/12/03 09:32:31;;;;;;;6.83;5.40;;;1.80;99.90;;;;;;4979365;28;20542;-51
2021/12/03 09:34:58;;;;;;;4.77;4.37;;;1.80;99.90;;;;;;4979373;28;20557;-51
2021/12/03 09:37:25;;;;;;;12.30;5.67;;;2.10;99.90;;;;;;4968161;28;20556;-51
2021/12/03 09:39:53;;;;;;;8.80;4.73;;;2.20;99.90;;;;;;4961582;28;20490;-51
2021/12/03 09:42:20;;;;;;;7.50;5.23;;;2.50;99.90;;;;;;4970456;28;20489;-51
2021/12/03 09:44:49;;;;;;;6.97;6.03;;;2.60;99.90;;;;;;4971882;28;20456;-52
2021/12/03 09:47:19;;;;;;;6.57;4.80;;;2.50;99.90;;;;;;4964320;28;20500;-52
2021/12/03 09:49:47;;;;;;;7.37;5.27;;;2.80;99.90;;;;;;4972125;28;20457;-51
2021/12/03 09:52:22;;;;;;;5.67;5.17;;;3.40;99.90;;;;;;4971667;28;20581;-52
2021/12/03 09:54:51;;;;;;;7.73;4.97;;;3.30;99.90;;;;;;4969701;28;20470;-51
2021/12/03 09:57:27;;;;;;;5.80;5.20;;;3.70;99.90;;;;;;4976453;28;20814;-51
2021/12/03 10:00:15;;;;;;;11.00;5.70;;;3.70;99.90;;;;;;4976244;28;20849;-51
2021/12/03 10:03:09;;;;;;;5.37;4.90;;;4.10;25.20;;;;;;4971356;28;20508;-51
2021/12/03 10:17:37;;;;;;;6.50;5.67;;;3.10;99.90;;;;;;4971679;28;20970;-57
2021/12/03 10:20:14;;;;;;;10.00;5.60;;;2.80;99.90;;;;;;4976462;28;20459;-56
2021/12/03 10:33:47;;;;;;;6.57;4.73;;;3.20;99.90;;;;;;4983209;28;20842;-56
2021/12/03 10:36:38;;;;;;;5.23;4.73;;;3.30;99.90;;;;;;4991831;28;20469;-56
2021/12/03 10:39:18;;;;;;;5.53;4.93;;;3.70;99.90;;;;;;4979555;28;20465;-55
2021/12/03 10:41:55;;;;;;;4.77;4.20;;;4.30;25.80;;;;;;4980965;28;21135;-56
2021/12/03 10:47:18;;;;;;;8.83;4.90;;;4.40;73.10;;;;;;4981057;28;20453;-56
2021/12/03 10:49:53;;;;;;;9.23;4.70;;;4.10;45.00;;;;;;4986372;28;20466;-55
2021/12/03 10:52:28;;;;;;;7.77;4.60;;;3.80;98.30;;;;;;4990992;28;20572;-56
2021/12/03 11:12:43;;;;;;;6.47;5.00;;;4.10;36.60;;;;;;4977992;28;20480;-51
2021/12/03 11:15:59;;;;;;;7.40;4.63;;;4.30;53.00;;;;;;4987839;28;20483;-53
2021/12/03 11:29:53;;;;;;;5.43;4.60;;;4.40;59.10;;;;;;4942341;28;20453;-51
2021/12/03 11:35:57;;;;;;;6.53;4.97;;;4.10;62.10;;;;;;4986239;28;20538;-51
2021/12/03 12:16:04;;;;;;;5.50;4.20;;;3.20;32.60;;;;;;4988249;28;20820;-51
2021/12/03 12:19:08;;;;;;;8.20;4.87;;;3.20;31.40;;;;;;4992086;28;20852;-52
2021/12/03 13:11:36;;;;;;;4.60;3.37;;;3.00;82.90;;;;;;4984905;28;20535;-51
2021/12/03 13:20:10;;;;;;;8.60;4.47;;;2.90;71.70;;;;;;4983287;28;20847;-51
2021/12/03 13:22:59;;;;;;;6.60;4.60;;;2.90;77.10;;;;;;4985675;28;20476;-52
2021/12/03 13:26:03;;;;;;;6.40;4.80;;;3.00;74.50;;;;;;4983010;28;21092;-51
2021/12/03 14:07:33;;;;;;;6.67;6.03;;;2.80;71.50;;;;;;4987783;28;21088;-51
2021/12/03 14:36:08;;;;;;;14.47;7.63;;;2.50;99.90;;;;;;4982361;28;20475;-51
2021/12/03 14:38:45;;;;;;;12.77;6.90;;;2.50;99.90;;;;;;4982791;28;20475;-51
2021/12/03 14:41:33;;;;;;;7.27;6.53;;;2.50;99.90;;;;;;4982016;28;20480;-51
2021/12/03 14:44:10;;;;;;;10.70;7.50;;;2.50;99.90;;;;;;4976946;28;20517;-51
2021/12/03 14:46:51;;;;;;;14.47;8.20;;;2.50;99.90;;;;;;4976753;28;20484;-51
2021/12/03 14:49:44;;;;;;;8.87;7.30;;;2.50;99.90;;;;;;4986409;28;20468;-51
2021/12/03 14:52:19;;;;;;;11.50;7.40;;;2.50;99.90;;;;;;4982650;28;20480;-51
2021/12/03 14:54:54;;;;;;;9.00;6.23;;;2.50;99.90;;;;;;4985550;28;20456;-51
2021/12/03 15:00:13;;;;;;;8.53;7.50;;;2.50;99.90;;;;;;4984335;28;20460;-50
2021/12/03 15:02:59;;;;;;;8.87;7.40;;;2.50;99.90;;;;;;4984174;28;20542;-51
2021/12/03 15:08:34;;;;;;;6.37;5.77;;;2.50;99.90;;;;;;4962781;28;20440;-50
2021/12/03 15:11:41;;;;;;;6.80;6.00;;;2.50;99.90;;;;;;4992467;28;20514;-51
2021/12/03 15:14:52;;;;;;;7.83;6.73;;;2.50;99.90;;;;;;4986705;28;20815;-51
2021/12/03 15:20:25;;;;;;;8.63;6.53;;;2.50;99.90;;;;;;4974735;28;20445;-51
2021/12/03 15:23:09;;;;;;;9.60;6.70;;;2.50;99.90;;;;;;4979930;28;20557;-51
2021/12/03 15:25:45;;;;;;;10.47;8.17;;;2.50;99.90;;;;;;4992026;28;20491;-51
2021/12/03 15:28:44;;;;;;;7.90;7.10;;;2.50;99.90;;;;;;4984217;28;20475;-52
2021/12/03 15:34:03;;;;;;;6.50;5.80;;;2.50;99.90;;;;;;4983609;28;20520;-52
2021/12/03 15:36:43;;;;;;;7.50;6.70;;;2.50;99.90;;;;;;4975164;28;21006;-52
2021/12/03 15:39:44;;;;;;;6.83;6.13;;;2.40;99.90;;;;;;4974234;28;20449;-52
2021/12/03 15:56:15;;;;;;;10.63;7.73;;;2.40;99.90;;;;;;4963142;28;20524;-51
2021/12/03 16:04:18;;;;;;;9.57;6.73;;;2.40;99.90;;;;;;4987713;28;20441;-54
2021/12/03 16:06:55;;;;;;;9.30;7.90;;;2.40;99.90;;;;;;4991843;28;20484;-50
2021/12/03 16:12:11;;;;;;;7.60;6.13;;;2.40;99.90;;;;;;4990574;28;20900;-51
2021/12/03 16:23:16;;;;;;;10.50;7.43;;;2.30;99.90;;;;;;4979879;28;20441;-51
2021/12/03 16:48:28;;;;;;;8.43;5.90;;;2.20;99.90;;;;;;4955780;28;20449;-52
2021/12/03 16:53:38;;;;;;;8.50;5.87;;;2.20;99.90;;;;;;4980039;28;21214;-51
2021/12/03 16:56:08;;;;;;;8.60;6.20;;;2.20;99.90;;;;;;4980901;28;20472;-51
2021/12/03 16:58:36;;;;;;;18.43;5.80;;;2.30;99.90;;;;;;4983444;28;20449;-51
2021/12/03 17:01:08;;;;;;;6.07;5.40;;;2.30;99.90;;;;;;4987887;28;20470;-51
2021/12/03 17:03:43;;;;;;;10.57;6.20;;;2.40;99.90;;;;;;4985848;28;20468;-51
2021/12/03 17:09:05;;;;;;;12.17;6.13;;;2.40;99.90;;;;;;4976239;28;20432;-52
2021/12/03 17:11:51;;;;;;;12.07;5.97;;;2.30;99.90;;;;;;4987718;28;20478;-50
2021/12/03 17:14:43;;;;;;;7.67;6.10;;;2.40;99.90;;;;;;4992680;28;20445;-51
2021/12/03 17:17:46;;;;;;;7.23;6.03;;;2.30;99.90;;;;;;4982969;28;20544;-51
2021/12/03 17:31:48;;;;;;;6.70;5.40;;;2.40;99.90;;;;;;4987184;28;20446;-53
2021/12/03 17:48:20;;;;;;;4.80;4.37;;;2.60;99.90;;;;;;4966310;28;20794;-51
2021/12/03 17:51:04;;;;;;;7.70;5.00;;;2.50;99.90;;;;;;4980910;28;21051;-52
2021/12/03 17:56:25;;;;;;;5.93;4.87;;;2.50;99.90;;;;;;5060167;28;20609;-51
2021/12/03 17:58:54;;;;;;;7.03;4.90;;;2.50;99.90;;;;;;5062431;28;20484;-51
2021/12/03 18:01:26;;;;;;;7.67;4.57;;;2.50;99.90;;;;;;5066440;28;20463;-52
2021/12/03 18:04:02;;;;;;;5.60;3.97;;;2.50;99.90;;;;;;5058928;28;20559;-52
2021/12/03 18:06:56;;;;;;;6.30;4.50;;;2.50;99.90;;;;;;5066000;28;20484;-51
2021/12/03 18:15:16;;;;;;;7.07;5.93;;;2.50;99.90;;;;;;5057865;28;20845;-52
2021/12/03 18:45:20;;;;;;;6.33;4.00;;;2.50;99.90;;;;;;5054673;28;20545;-51
2021/12/03 18:48:15;;;;;;;7.00;4.40;;;2.50;99.90;;;;;;5063355;28;20946;-51
2021/12/03 18:51:02;;;;;;;12.10;4.50;;;2.50;99.90;;;;;;5056300;28;20930;-52
2021/12/03 18:56:30;;;;;;;6.30;4.47;;;2.50;72.50;;;;;;5017173;28;21035;-52
2021/12/03 18:58:59;;;;;;;7.03;5.90;;;2.60;78.60;;;;;;5053465;28;20844;-52
2021/12/03 19:01:29;;;;;;;5.20;3.90;;;2.60;25.40;;;;;;5059287;28;20469;-52
2021/12/03 19:06:46;;;;;;;8.10;4.03;;;2.60;22.70;;;;;;5046177;28;21014;-51